sensor_id;sensor_type;location;lat;lon;timestamp;P1;durP1;ratioP1;P2;durP2;ratioP2
3847;SDS011;1939;48.720;9.166;2022-11-15T00:00:49;9.30;;;4.50;;
3847;SDS011;1939;48.720;9.166;2022-11-15T00:03:14;12.87;;;6.87;;
3847;SDS011;1939;48.720;9.166;2022-11-15T00:05:40;7.40;;;4.23;;
3847;SDS011;1939;48.720;9.166;2022-11-15T00:08:05;8.13;;;5.00;;
3847;SDS011;1939;48.720;9.166;2022-11-15T00:10:30;11.07;;;5.30;;
3847;SDS011;1939;48.720;9.166;2022-11-15T00:12:55;6.80;;;4.80;;
3847;SDS011;1939;48.720;9.166;2022-11-15T00:15:21;7.73;;;5.00;;
3847;SDS011;1939;48.720;9.166;2022-11-15T00:17:48;8.23;;;3.97;;
3847;SDS011;1939;48.720;9.166;2022-11-15T00:20:13;10.73;;;5.10;;
3847;SDS011;1939;48.720;9.166;2022-11-15T00:22:39;12.90;;;5.80;;
3847;SDS011;1939;48.720;9.166;2022-11-15T00:25:04;8.10;;;5.37;;
3847;SDS011;1939;48.720;9.166;2022-11-15T00:27:29;10.90;;;6.93;;
3847;SDS011;1939;48.720;9.166;2022-11-15T00:29:54;6.10;;;4.20;;
3847;SDS011;1939;48.720;9.166;2022-11-15T00:32:20;6.33;;;4.43;;
3847;SDS011;1939;48.720;9.166;2022-11-15T00:34:45;7.03;;;4.77;;
3847;SDS011;1939;48.720;9.166;2022-11-15T00:37:10;10.83;;;4.93;;
3847;SDS011;1939;48.720;9.166;2022-11-15T00:39:35;7.13;;;4.70;;
3847;SDS011;1939;48.720;9.166;2022-11-15T00:42:00;9.50;;;5.50;;
3847;SDS011;1939;48.720;9.166;2022-11-15T00:44:26;8.63;;;4.80;;
3847;SDS011;1939;48.720;9.166;2022-11-15T00:46:51;6.30;;;4.50;;
3847;SDS011;1939;48.720;9.166;2022-11-15T00:49:17;6.87;;;4.50;;
3847;SDS011;1939;48.720;9.166;2022-11-15T00:51:42;5.40;;;3.53;;
3847;SDS011;1939;48.720;9.166;2022-11-15T00:54:07;4.47;;;4.00;;
3847;SDS011;1939;48.720;9.166;2022-11-15T00:56:33;5.33;;;3.63;;
3847;SDS011;1939;48.720;9.166;2022-11-15T00:58:58;7.57;;;3.57;;
3847;SDS011;1939;48.720;9.166;2022-11-15T01:01:23;6.03;;;3.87;;
3847;SDS011;1939;48.720;9.166;2022-11-15T01:03:48;8.80;;;3.73;;
3847;SDS011;1939;48.720;9.166;2022-11-15T01:06:14;6.20;;;3.30;;
3847;SDS011;1939;48.720;9.166;2022-11-15T01:08:39;4.87;;;3.77;;
3847;SDS011;1939;48.720;9.166;2022-11-15T01:11:06;6.70;;;3.67;;
3847;SDS011;1939;48.720;9.166;2022-11-15T01:13:32;8.20;;;4.10;;
3847;SDS011;1939;48.720;9.166;2022-11-15T01:15:58;6.17;;;3.53;;
3847;SDS011;1939;48.720;9.166;2022-11-15T01:18:23;7.20;;;3.17;;
3847;SDS011;1939;48.720;9.166;2022-11-15T01:20:49;9.57;;;3.90;;
3847;SDS011;1939;48.720;9.166;2022-11-15T01:23:14;6.47;;;3.40;;
3847;SDS011;1939;48.720;9.166;2022-11-15T01:25:39;4.60;;;3.10;;
3847;SDS011;1939;48.720;9.166;2022-11-15T01:28:04;11.00;;;3.80;;
3847;SDS011;1939;48.720;9.166;2022-11-15T01:30:29;4.37;;;2.97;;
3847;SDS011;1939;48.720;9.166;2022-11-15T01:32:55;4.87;;;4.00;;
3847;SDS011;1939;48.720;9.166;2022-11-15T01:35:20;6.77;;;3.47;;
3847;SDS011;1939;48.720;9.166;2022-11-15T01:37:45;8.53;;;3.60;;
3847;SDS011;1939;48.720;9.166;2022-11-15T01:40:11;12.93;;;3.97;;
3847;SDS011;1939;48.720;9.166;2022-11-15T01:42:36;7.17;;;3.90;;
3847;SDS011;1939;48.720;9.166;2022-11-15T01:45:01;9.03;;;4.30;;
3847;SDS011;1939;48.720;9.166;2022-11-15T01:47:30;6.27;;;3.33;;
3847;SDS011;1939;48.720;9.166;2022-11-15T01:50:04;8.43;;;3.63;;
3847;SDS011;1939;48.720;9.166;2022-11-15T01:52:30;6.30;;;3.13;;
3847;SDS011;1939;48.720;9.166;2022-11-15T01:57:23;5.50;;;3.50;;
3847;SDS011;1939;48.720;9.166;2022-11-15T01:59:48;6.20;;;3.90;;
3847;SDS011;1939;48.720;9.166;2022-11-15T02:02:14;6.57;;;3.17;;
3847;SDS011;1939;48.720;9.166;2022-11-15T02:04:40;5.77;;;3.63;;
3847;SDS011;1939;48.720;9.166;2022-11-15T02:07:06;6.23;;;3.60;;
3847;SDS011;1939;48.720;9.166;2022-11-15T02:09:32;8.47;;;3.93;;
3847;SDS011;1939;48.720;9.166;2022-11-15T02:11:58;8.43;;;4.30;;
3847;SDS011;1939;48.720;9.166;2022-11-15T02:14:24;7.10;;;3.40;;
3847;SDS011;1939;48.720;9.166;2022-11-15T02:19:59;4.30;;;3.03;;
3847;SDS011;1939;48.720;9.166;2022-11-15T02:25:46;5.80;;;4.00;;
3847;SDS011;1939;48.720;9.166;2022-11-15T02:30:24;6.20;;;3.10;;
3847;SDS011;1939;48.720;9.166;2022-11-15T02:38:31;5.20;;;3.20;;
3847;SDS011;1939;48.720;9.166;2022-11-15T02:41:02;5.27;;;3.17;;
3847;SDS011;1939;48.720;9.166;2022-11-15T02:43:29;5.53;;;3.60;;
3847;SDS011;1939;48.720;9.166;2022-11-15T02:46:15;4.93;;;3.33;;
3847;SDS011;1939;48.720;9.166;2022-11-15T02:48:44;5.90;;;3.70;;
3847;SDS011;1939;48.720;9.166;2022-11-15T02:51:10;5.77;;;3.30;;
3847;SDS011;1939;48.720;9.166;2022-11-15T02:53:36;5.37;;;2.93;;
3847;SDS011;1939;48.720;9.166;2022-11-15T02:56:01;5.13;;;3.37;;
3847;SDS011;1939;48.720;9.166;2022-11-15T03:01:06;5.13;;;3.20;;
3847;SDS011;1939;48.720;9.166;2022-11-15T03:06:14;9.43;;;3.80;;
3847;SDS011;1939;48.720;9.166;2022-11-15T03:08:46;7.53;;;3.53;;
3847;SDS011;1939;48.720;9.166;2022-11-15T03:11:16;5.93;;;3.43;;
3847;SDS011;1939;48.720;9.166;2022-11-15T03:16:28;10.07;;;4.00;;
3847;SDS011;1939;48.720;9.166;2022-11-15T03:19:31;4.70;;;3.13;;
3847;SDS011;1939;48.720;9.166;2022-11-15T03:21:47;13.00;;;4.27;;
3847;SDS011;1939;48.720;9.166;2022-11-15T03:24:14;5.63;;;3.40;;
3847;SDS011;1939;48.720;9.166;2022-11-15T03:26:41;10.87;;;3.60;;
3847;SDS011;1939;48.720;9.166;2022-11-15T03:29:16;6.93;;;3.60;;
3847;SDS011;1939;48.720;9.166;2022-11-15T03:31:44;7.60;;;4.10;;
3847;SDS011;1939;48.720;9.166;2022-11-15T03:36:57;5.27;;;3.50;;
3847;SDS011;1939;48.720;9.166;2022-11-15T03:39:22;5.07;;;3.70;;
3847;SDS011;1939;48.720;9.166;2022-11-15T03:46:48;5.63;;;3.77;;
3847;SDS011;1939;48.720;9.166;2022-11-15T03:49:16;6.60;;;3.30;;
3847;SDS011;1939;48.720;9.166;2022-11-15T03:51:43;14.93;;;4.20;;
3847;SDS011;1939;48.720;9.166;2022-11-15T03:54:08;5.90;;;4.03;;
3847;SDS011;1939;48.720;9.166;2022-11-15T03:56:33;5.90;;;3.67;;
3847;SDS011;1939;48.720;9.166;2022-11-15T03:58:58;6.30;;;4.20;;
3847;SDS011;1939;48.720;9.166;2022-11-15T04:01:23;6.63;;;3.80;;
3847;SDS011;1939;48.720;9.166;2022-11-15T04:03:49;5.97;;;3.93;;
3847;SDS011;1939;48.720;9.166;2022-11-15T04:06:14;10.27;;;4.50;;
3847;SDS011;1939;48.720;9.166;2022-11-15T04:08:39;7.67;;;3.90;;
3847;SDS011;1939;48.720;9.166;2022-11-15T04:11:04;5.97;;;4.10;;
3847;SDS011;1939;48.720;9.166;2022-11-15T04:13:30;4.87;;;4.03;;
3847;SDS011;1939;48.720;9.166;2022-11-15T04:15:55;6.30;;;3.60;;
3847;SDS011;1939;48.720;9.166;2022-11-15T04:18:20;9.00;;;4.50;;
3847;SDS011;1939;48.720;9.166;2022-11-15T04:20:45;5.60;;;3.50;;
3847;SDS011;1939;48.720;9.166;2022-11-15T04:23:29;6.47;;;3.63;;
3847;SDS011;1939;48.720;9.166;2022-11-15T04:26:16;7.57;;;4.70;;
3847;SDS011;1939;48.720;9.166;2022-11-15T04:28:41;11.97;;;3.40;;
3847;SDS011;1939;48.720;9.166;2022-11-15T04:31:26;5.77;;;4.20;;
3847;SDS011;1939;48.720;9.166;2022-11-15T04:33:51;5.00;;;3.63;;
3847;SDS011;1939;48.720;9.166;2022-11-15T04:36:16;7.30;;;4.40;;
3847;SDS011;1939;48.720;9.166;2022-11-15T04:39:00;4.37;;;3.50;;
3847;SDS011;1939;48.720;9.166;2022-11-15T04:41:25;5.30;;;3.63;;
3847;SDS011;1939;48.720;9.166;2022-11-15T04:43:50;5.83;;;3.90;;
3847;SDS011;1939;48.720;9.166;2022-11-15T04:46:16;5.83;;;3.53;;
3847;SDS011;1939;48.720;9.166;2022-11-15T04:48:41;9.10;;;4.07;;
3847;SDS011;1939;48.720;9.166;2022-11-15T04:51:06;7.70;;;4.20;;
3847;SDS011;1939;48.720;9.166;2022-11-15T04:53:31;8.40;;;4.20;;
3847;SDS011;1939;48.720;9.166;2022-11-15T04:55:56;9.17;;;4.97;;
3847;SDS011;1939;48.720;9.166;2022-11-15T04:58:22;6.57;;;4.03;;
3847;SDS011;1939;48.720;9.166;2022-11-15T05:00:47;6.57;;;4.53;;
3847;SDS011;1939;48.720;9.166;2022-11-15T05:03:12;10.17;;;4.40;;
3847;SDS011;1939;48.720;9.166;2022-11-15T05:05:57;5.63;;;4.87;;
3847;SDS011;1939;48.720;9.166;2022-11-15T05:08:22;7.27;;;4.40;;
3847;SDS011;1939;48.720;9.166;2022-11-15T05:10:47;8.93;;;4.47;;
3847;SDS011;1939;48.720;9.166;2022-11-15T05:13:12;8.97;;;4.47;;
3847;SDS011;1939;48.720;9.166;2022-11-15T05:15:38;8.70;;;4.20;;
3847;SDS011;1939;48.720;9.166;2022-11-15T05:18:03;6.33;;;4.00;;
3847;SDS011;1939;48.720;9.166;2022-11-15T05:20:28;6.20;;;3.77;;
3847;SDS011;1939;48.720;9.166;2022-11-15T05:22:53;6.67;;;4.33;;
3847;SDS011;1939;48.720;9.166;2022-11-15T05:25:20;7.60;;;3.70;;
3847;SDS011;1939;48.720;9.166;2022-11-15T05:27:45;6.27;;;4.47;;
3847;SDS011;1939;48.720;9.166;2022-11-15T05:30:11;17.03;;;4.80;;
3847;SDS011;1939;48.720;9.166;2022-11-15T05:32:36;8.93;;;5.13;;
3847;SDS011;1939;48.720;9.166;2022-11-15T05:35:01;7.90;;;4.23;;
3847;SDS011;1939;48.720;9.166;2022-11-15T05:37:28;8.70;;;4.57;;
3847;SDS011;1939;48.720;9.166;2022-11-15T05:39:53;8.77;;;5.40;;
3847;SDS011;1939;48.720;9.166;2022-11-15T05:42:18;7.07;;;4.30;;
3847;SDS011;1939;48.720;9.166;2022-11-15T05:44:46;4.77;;;3.90;;
3847;SDS011;1939;48.720;9.166;2022-11-15T05:47:14;8.97;;;4.57;;
3847;SDS011;1939;48.720;9.166;2022-11-15T05:49:40;11.43;;;4.70;;
3847;SDS011;1939;48.720;9.166;2022-11-15T05:52:07;12.17;;;4.73;;
3847;SDS011;1939;48.720;9.166;2022-11-15T05:54:32;9.43;;;3.73;;
3847;SDS011;1939;48.720;9.166;2022-11-15T05:56:58;7.33;;;3.87;;
3847;SDS011;1939;48.720;9.166;2022-11-15T05:59:24;8.77;;;4.40;;
3847;SDS011;1939;48.720;9.166;2022-11-15T06:01:50;8.97;;;4.83;;
3847;SDS011;1939;48.720;9.166;2022-11-15T06:04:15;5.87;;;3.20;;
3847;SDS011;1939;48.720;9.166;2022-11-15T06:06:40;12.67;;;4.57;;
3847;SDS011;1939;48.720;9.166;2022-11-15T06:09:05;11.00;;;4.73;;
3847;SDS011;1939;48.720;9.166;2022-11-15T06:11:31;6.40;;;4.23;;
3847;SDS011;1939;48.720;9.166;2022-11-15T06:13:56;6.73;;;4.53;;
3847;SDS011;1939;48.720;9.166;2022-11-15T06:16:21;8.30;;;3.87;;
3847;SDS011;1939;48.720;9.166;2022-11-15T06:18:46;9.57;;;4.60;;
3847;SDS011;1939;48.720;9.166;2022-11-15T06:21:11;8.63;;;4.97;;
3847;SDS011;1939;48.720;9.166;2022-11-15T06:23:36;6.67;;;3.90;;
3847;SDS011;1939;48.720;9.166;2022-11-15T06:26:02;6.97;;;4.13;;
3847;SDS011;1939;48.720;9.166;2022-11-15T06:28:28;6.93;;;4.10;;
3847;SDS011;1939;48.720;9.166;2022-11-15T06:30:53;6.10;;;3.90;;
3847;SDS011;1939;48.720;9.166;2022-11-15T06:33:18;7.07;;;5.10;;
3847;SDS011;1939;48.720;9.166;2022-11-15T06:35:43;5.80;;;3.70;;
3847;SDS011;1939;48.720;9.166;2022-11-15T06:38:09;11.40;;;3.60;;
3847;SDS011;1939;48.720;9.166;2022-11-15T06:40:35;7.70;;;4.33;;
3847;SDS011;1939;48.720;9.166;2022-11-15T06:43:00;6.20;;;3.87;;
3847;SDS011;1939;48.720;9.166;2022-11-15T06:45:26;12.70;;;4.37;;
3847;SDS011;1939;48.720;9.166;2022-11-15T06:47:51;12.33;;;5.90;;
3847;SDS011;1939;48.720;9.166;2022-11-15T06:50:17;5.70;;;4.90;;
3847;SDS011;1939;48.720;9.166;2022-11-15T06:52:42;9.03;;;4.70;;
3847;SDS011;1939;48.720;9.166;2022-11-15T06:55:07;10.10;;;5.33;;
3847;SDS011;1939;48.720;9.166;2022-11-15T06:57:33;8.70;;;6.30;;
3847;SDS011;1939;48.720;9.166;2022-11-15T06:59:58;12.10;;;4.83;;
3847;SDS011;1939;48.720;9.166;2022-11-15T07:02:23;9.43;;;5.53;;
3847;SDS011;1939;48.720;9.166;2022-11-15T07:04:48;6.80;;;4.77;;
3847;SDS011;1939;48.720;9.166;2022-11-15T07:07:13;13.20;;;5.50;;
3847;SDS011;1939;48.720;9.166;2022-11-15T07:09:39;12.00;;;6.50;;
3847;SDS011;1939;48.720;9.166;2022-11-15T07:12:04;6.30;;;4.83;;
3847;SDS011;1939;48.720;9.166;2022-11-15T07:14:29;6.63;;;4.60;;
3847;SDS011;1939;48.720;9.166;2022-11-15T07:16:54;9.80;;;5.23;;
3847;SDS011;1939;48.720;9.166;2022-11-15T07:19:20;7.43;;;4.80;;
3847;SDS011;1939;48.720;9.166;2022-11-15T07:21:45;8.87;;;5.33;;
3847;SDS011;1939;48.720;9.166;2022-11-15T07:24:10;7.63;;;4.73;;
3847;SDS011;1939;48.720;9.166;2022-11-15T07:26:35;9.70;;;5.67;;
3847;SDS011;1939;48.720;9.166;2022-11-15T07:29:00;6.70;;;4.83;;
3847;SDS011;1939;48.720;9.166;2022-11-15T07:31:25;8.60;;;4.97;;
3847;SDS011;1939;48.720;9.166;2022-11-15T07:33:51;6.97;;;4.90;;
3847;SDS011;1939;48.720;9.166;2022-11-15T07:36:16;8.27;;;4.90;;
3847;SDS011;1939;48.720;9.166;2022-11-15T07:38:41;12.90;;;5.10;;
3847;SDS011;1939;48.720;9.166;2022-11-15T07:41:07;27.13;;;5.77;;
3847;SDS011;1939;48.720;9.166;2022-11-15T07:43:32;7.67;;;3.97;;
3847;SDS011;1939;48.720;9.166;2022-11-15T07:45:59;6.80;;;3.60;;
3847;SDS011;1939;48.720;9.166;2022-11-15T07:48:28;8.63;;;3.63;;
3847;SDS011;1939;48.720;9.166;2022-11-15T07:50:54;6.07;;;4.23;;
3847;SDS011;1939;48.720;9.166;2022-11-15T07:53:19;5.30;;;3.70;;
3847;SDS011;1939;48.720;9.166;2022-11-15T07:55:44;9.73;;;4.40;;
3847;SDS011;1939;48.720;9.166;2022-11-15T07:58:10;7.80;;;4.23;;
3847;SDS011;1939;48.720;9.166;2022-11-15T08:00:35;11.23;;;4.07;;
3847;SDS011;1939;48.720;9.166;2022-11-15T08:03:02;5.17;;;3.03;;
3847;SDS011;1939;48.720;9.166;2022-11-15T08:05:27;7.57;;;3.97;;
3847;SDS011;1939;48.720;9.166;2022-11-15T08:07:54;10.33;;;4.10;;
3847;SDS011;1939;48.720;9.166;2022-11-15T08:10:19;5.83;;;4.03;;
3847;SDS011;1939;48.720;9.166;2022-11-15T08:12:45;8.27;;;4.60;;
3847;SDS011;1939;48.720;9.166;2022-11-15T08:15:10;11.03;;;4.20;;
3847;SDS011;1939;48.720;9.166;2022-11-15T08:17:35;6.93;;;4.07;;
3847;SDS011;1939;48.720;9.166;2022-11-15T08:20:01;8.03;;;4.07;;
3847;SDS011;1939;48.720;9.166;2022-11-15T08:22:26;8.97;;;3.87;;
3847;SDS011;1939;48.720;9.166;2022-11-15T08:24:51;4.77;;;4.07;;
3847;SDS011;1939;48.720;9.166;2022-11-15T08:27:17;16.60;;;4.30;;
3847;SDS011;1939;48.720;9.166;2022-11-15T08:29:42;11.23;;;3.77;;
3847;SDS011;1939;48.720;9.166;2022-11-15T08:32:08;4.90;;;3.60;;
3847;SDS011;1939;48.720;9.166;2022-11-15T08:34:33;6.00;;;3.67;;
3847;SDS011;1939;48.720;9.166;2022-11-15T08:36:58;8.67;;;4.00;;
3847;SDS011;1939;48.720;9.166;2022-11-15T08:39:23;10.30;;;4.13;;
3847;SDS011;1939;48.720;9.166;2022-11-15T08:41:48;8.77;;;3.90;;
3847;SDS011;1939;48.720;9.166;2022-11-15T08:44:13;7.43;;;3.00;;
3847;SDS011;1939;48.720;9.166;2022-11-15T08:46:39;8.20;;;3.37;;
3847;SDS011;1939;48.720;9.166;2022-11-15T08:49:04;6.60;;;3.87;;
3847;SDS011;1939;48.720;9.166;2022-11-15T08:51:29;8.80;;;3.60;;
3847;SDS011;1939;48.720;9.166;2022-11-15T08:53:54;4.50;;;3.20;;
3847;SDS011;1939;48.720;9.166;2022-11-15T08:56:19;7.60;;;4.20;;
3847;SDS011;1939;48.720;9.166;2022-11-15T08:58:45;9.00;;;2.80;;
3847;SDS011;1939;48.720;9.166;2022-11-15T09:01:14;4.00;;;3.30;;
3847;SDS011;1939;48.720;9.166;2022-11-15T09:03:40;4.30;;;3.13;;
3847;SDS011;1939;48.720;9.166;2022-11-15T09:06:05;9.90;;;3.30;;
3847;SDS011;1939;48.720;9.166;2022-11-15T09:08:30;7.97;;;3.10;;
3847;SDS011;1939;48.720;9.166;2022-11-15T09:10:56;7.70;;;3.37;;
3847;SDS011;1939;48.720;9.166;2022-11-15T09:13:21;5.97;;;2.93;;
3847;SDS011;1939;48.720;9.166;2022-11-15T09:15:47;5.37;;;3.17;;
3847;SDS011;1939;48.720;9.166;2022-11-15T09:18:12;5.07;;;3.27;;
3847;SDS011;1939;48.720;9.166;2022-11-15T09:20:37;5.30;;;3.43;;
3847;SDS011;1939;48.720;9.166;2022-11-15T09:23:03;8.63;;;3.60;;
3847;SDS011;1939;48.720;9.166;2022-11-15T09:25:28;6.07;;;4.30;;
3847;SDS011;1939;48.720;9.166;2022-11-15T09:27:53;6.57;;;3.63;;
3847;SDS011;1939;48.720;9.166;2022-11-15T09:30:19;6.13;;;3.93;;
3847;SDS011;1939;48.720;9.166;2022-11-15T09:32:44;8.60;;;3.57;;
3847;SDS011;1939;48.720;9.166;2022-11-15T09:35:09;11.80;;;3.47;;
3847;SDS011;1939;48.720;9.166;2022-11-15T09:37:34;12.37;;;3.67;;
3847;SDS011;1939;48.720;9.166;2022-11-15T09:39:59;7.90;;;4.00;;
3847;SDS011;1939;48.720;9.166;2022-11-15T09:42:28;4.30;;;3.33;;
3847;SDS011;1939;48.720;9.166;2022-11-15T09:45:09;9.80;;;4.70;;
3847;SDS011;1939;48.720;9.166;2022-11-15T09:50:06;11.87;;;4.50;;
3847;SDS011;1939;48.720;9.166;2022-11-15T09:52:33;8.30;;;4.40;;
3847;SDS011;1939;48.720;9.166;2022-11-15T09:54:59;9.43;;;4.57;;
3847;SDS011;1939;48.720;9.166;2022-11-15T09:57:30;9.80;;;5.07;;
3847;SDS011;1939;48.720;9.166;2022-11-15T10:00:02;8.00;;;4.10;;
3847;SDS011;1939;48.720;9.166;2022-11-15T10:05:07;8.53;;;4.17;;
3847;SDS011;1939;48.720;9.166;2022-11-15T10:07:39;11.57;;;5.67;;
3847;SDS011;1939;48.720;9.166;2022-11-15T10:10:11;9.43;;;4.40;;
3847;SDS011;1939;48.720;9.166;2022-11-15T10:12:40;9.87;;;4.63;;
3847;SDS011;1939;48.720;9.166;2022-11-15T10:15:11;10.10;;;4.90;;
3847;SDS011;1939;48.720;9.166;2022-11-15T10:17:46;9.30;;;3.80;;
3847;SDS011;1939;48.720;9.166;2022-11-15T10:20:27;12.50;;;5.37;;
3847;SDS011;1939;48.720;9.166;2022-11-15T10:22:53;11.03;;;4.83;;
3847;SDS011;1939;48.720;9.166;2022-11-15T10:25:24;12.70;;;4.67;;
3847;SDS011;1939;48.720;9.166;2022-11-15T10:27:53;11.93;;;5.33;;
3847;SDS011;1939;48.720;9.166;2022-11-15T10:30:18;10.50;;;5.17;;
3847;SDS011;1939;48.720;9.166;2022-11-15T10:32:45;12.07;;;5.90;;
3847;SDS011;1939;48.720;9.166;2022-11-15T10:35:18;16.97;;;5.43;;
3847;SDS011;1939;48.720;9.166;2022-11-15T10:37:43;19.27;;;5.83;;
3847;SDS011;1939;48.720;9.166;2022-11-15T10:40:15;12.73;;;6.33;;
3847;SDS011;1939;48.720;9.166;2022-11-15T10:42:40;15.30;;;5.87;;
3847;SDS011;1939;48.720;9.166;2022-11-15T10:47:49;14.77;;;6.57;;
3847;SDS011;1939;48.720;9.166;2022-11-15T10:52:52;13.50;;;6.20;;
3847;SDS011;1939;48.720;9.166;2022-11-15T10:57:48;16.87;;;5.30;;
3847;SDS011;1939;48.720;9.166;2022-11-15T11:00:33;6.80;;;5.47;;
3847;SDS011;1939;48.720;9.166;2022-11-15T11:03:00;10.50;;;5.63;;
3847;SDS011;1939;48.720;9.166;2022-11-15T11:05:28;20.33;;;5.57;;
3847;SDS011;1939;48.720;9.166;2022-11-15T11:07:57;8.63;;;5.90;;
3847;SDS011;1939;48.720;9.166;2022-11-15T11:10:23;15.40;;;6.20;;
3847;SDS011;1939;48.720;9.166;2022-11-15T11:12:48;18.60;;;6.27;;
3847;SDS011;1939;48.720;9.166;2022-11-15T11:15:14;11.67;;;7.00;;
3847;SDS011;1939;48.720;9.166;2022-11-15T11:20:32;12.27;;;5.93;;
3847;SDS011;1939;48.720;9.166;2022-11-15T11:25:47;16.70;;;5.50;;
3847;SDS011;1939;48.720;9.166;2022-11-15T11:33:29;14.17;;;5.23;;
3847;SDS011;1939;48.720;9.166;2022-11-15T11:38:49;7.90;;;4.03;;
3847;SDS011;1939;48.720;9.166;2022-11-15T11:44:04;9.10;;;4.20;;
3847;SDS011;1939;48.720;9.166;2022-11-15T11:49:10;4.50;;;2.80;;
3847;SDS011;1939;48.720;9.166;2022-11-15T11:51:41;5.50;;;2.80;;
3847;SDS011;1939;48.720;9.166;2022-11-15T11:56:33;8.17;;;3.70;;
3847;SDS011;1939;48.720;9.166;2022-11-15T11:59:09;10.43;;;3.60;;
3847;SDS011;1939;48.720;9.166;2022-11-15T12:01:37;3.43;;;2.33;;
3847;SDS011;1939;48.720;9.166;2022-11-15T12:04:11;4.10;;;2.37;;
3847;SDS011;1939;48.720;9.166;2022-11-15T12:09:23;4.10;;;2.43;;
3847;SDS011;1939;48.720;9.166;2022-11-15T12:12:39;5.40;;;4.10;;
3847;SDS011;1939;48.720;9.166;2022-11-15T12:17:05;5.17;;;3.80;;
3847;SDS011;1939;48.720;9.166;2022-11-15T12:19:30;8.47;;;4.00;;
3847;SDS011;1939;48.720;9.166;2022-11-15T12:22:00;9.73;;;4.60;;
3847;SDS011;1939;48.720;9.166;2022-11-15T12:24:33;8.00;;;4.37;;
3847;SDS011;1939;48.720;9.166;2022-11-15T12:27:03;14.60;;;5.70;;
3847;SDS011;1939;48.720;9.166;2022-11-15T12:29:35;7.70;;;5.00;;
3847;SDS011;1939;48.720;9.166;2022-11-15T12:32:01;7.53;;;5.10;;
3847;SDS011;1939;48.720;9.166;2022-11-15T12:34:29;5.40;;;4.43;;
3847;SDS011;1939;48.720;9.166;2022-11-15T12:36:59;7.00;;;5.03;;
3847;SDS011;1939;48.720;9.166;2022-11-15T12:59:48;8.47;;;5.90;;
3847;SDS011;1939;48.720;9.166;2022-11-15T13:02:26;25.97;;;6.90;;
3847;SDS011;1939;48.720;9.166;2022-11-15T13:04:53;20.00;;;6.20;;
3847;SDS011;1939;48.720;9.166;2022-11-15T13:10:00;7.57;;;5.87;;
3847;SDS011;1939;48.720;9.166;2022-11-15T13:14:51;14.40;;;6.70;;
3847;SDS011;1939;48.720;9.166;2022-11-15T13:25:27;10.43;;;5.17;;
3847;SDS011;1939;48.720;9.166;2022-11-15T13:27:59;9.63;;;5.90;;
3847;SDS011;1939;48.720;9.166;2022-11-15T13:30:26;22.83;;;8.73;;
3847;SDS011;1939;48.720;9.166;2022-11-15T13:32:52;18.53;;;7.33;;
3847;SDS011;1939;48.720;9.166;2022-11-15T13:35:24;10.80;;;5.57;;
3847;SDS011;1939;48.720;9.166;2022-11-15T13:37:50;8.57;;;5.70;;
3847;SDS011;1939;48.720;9.166;2022-11-15T13:42:45;12.57;;;6.00;;
3847;SDS011;1939;48.720;9.166;2022-11-15T13:45:12;11.50;;;6.03;;
3847;SDS011;1939;48.720;9.166;2022-11-15T13:47:38;16.23;;;5.63;;
3847;SDS011;1939;48.720;9.166;2022-11-15T13:50:03;9.10;;;6.23;;
3847;SDS011;1939;48.720;9.166;2022-11-15T13:52:34;12.10;;;5.63;;
3847;SDS011;1939;48.720;9.166;2022-11-15T13:57:27;11.33;;;6.20;;
3847;SDS011;1939;48.720;9.166;2022-11-15T14:02:19;8.17;;;5.47;;
3847;SDS011;1939;48.720;9.166;2022-11-15T14:04:55;11.63;;;6.73;;
3847;SDS011;1939;48.720;9.166;2022-11-15T14:07:22;7.13;;;5.20;;
3847;SDS011;1939;48.720;9.166;2022-11-15T14:09:48;10.30;;;5.13;;
3847;SDS011;1939;48.720;9.166;2022-11-15T14:12:21;10.00;;;5.60;;
3847;SDS011;1939;48.720;9.166;2022-11-15T14:14:47;7.87;;;5.10;;
3847;SDS011;1939;48.720;9.166;2022-11-15T14:17:33;12.43;;;5.90;;
3847;SDS011;1939;48.720;9.166;2022-11-15T14:19:58;9.17;;;5.30;;
3847;SDS011;1939;48.720;9.166;2022-11-15T14:22:24;7.83;;;5.47;;
3847;SDS011;1939;48.720;9.166;2022-11-15T14:27:34;11.57;;;6.30;;
3847;SDS011;1939;48.720;9.166;2022-11-15T14:30:00;17.83;;;6.87;;
3847;SDS011;1939;48.720;9.166;2022-11-15T14:32:26;9.50;;;6.13;;
3847;SDS011;1939;48.720;9.166;2022-11-15T14:34:56;12.27;;;5.77;;
3847;SDS011;1939;48.720;9.166;2022-11-15T14:39:47;8.90;;;5.20;;
3847;SDS011;1939;48.720;9.166;2022-11-15T14:42:12;7.60;;;4.83;;
3847;SDS011;1939;48.720;9.166;2022-11-15T14:44:37;7.27;;;5.20;;
3847;SDS011;1939;48.720;9.166;2022-11-15T14:47:03;7.73;;;4.73;;
3847;SDS011;1939;48.720;9.166;2022-11-15T14:49:28;10.13;;;4.37;;
3847;SDS011;1939;48.720;9.166;2022-11-15T14:51:53;9.47;;;5.60;;
3847;SDS011;1939;48.720;9.166;2022-11-15T14:54:18;8.50;;;6.00;;
3847;SDS011;1939;48.720;9.166;2022-11-15T14:56:43;11.43;;;5.43;;
3847;SDS011;1939;48.720;9.166;2022-11-15T14:59:09;11.03;;;5.00;;
3847;SDS011;1939;48.720;9.166;2022-11-15T15:01:34;8.77;;;5.43;;
3847;SDS011;1939;48.720;9.166;2022-11-15T15:03:59;12.87;;;5.47;;
3847;SDS011;1939;48.720;9.166;2022-11-15T15:06:25;8.80;;;6.80;;
3847;SDS011;1939;48.720;9.166;2022-11-15T15:08:50;13.50;;;5.63;;
3847;SDS011;1939;48.720;9.166;2022-11-15T15:11:18;10.93;;;5.20;;
3847;SDS011;1939;48.720;9.166;2022-11-15T15:13:44;11.37;;;5.73;;
3847;SDS011;1939;48.720;9.166;2022-11-15T15:16:09;9.50;;;5.30;;
3847;SDS011;1939;48.720;9.166;2022-11-15T15:18:34;12.50;;;6.57;;
3847;SDS011;1939;48.720;9.166;2022-11-15T15:21:00;9.97;;;5.50;;
3847;SDS011;1939;48.720;9.166;2022-11-15T15:23:28;11.20;;;6.60;;
3847;SDS011;1939;48.720;9.166;2022-11-15T15:25:55;12.47;;;7.47;;
3847;SDS011;1939;48.720;9.166;2022-11-15T15:28:21;12.37;;;7.00;;
3847;SDS011;1939;48.720;9.166;2022-11-15T15:30:46;9.80;;;6.37;;
3847;SDS011;1939;48.720;9.166;2022-11-15T15:33:11;10.60;;;7.10;;
3847;SDS011;1939;48.720;9.166;2022-11-15T15:35:36;12.10;;;7.73;;
3847;SDS011;1939;48.720;9.166;2022-11-15T15:38:02;9.87;;;6.80;;
3847;SDS011;1939;48.720;9.166;2022-11-15T15:40:28;11.20;;;7.00;;
3847;SDS011;1939;48.720;9.166;2022-11-15T15:42:54;14.57;;;6.77;;
3847;SDS011;1939;48.720;9.166;2022-11-15T15:45:20;19.60;;;11.80;;
3847;SDS011;1939;48.720;9.166;2022-11-15T15:47:45;17.90;;;10.20;;
3847;SDS011;1939;48.720;9.166;2022-11-15T15:50:16;11.23;;;9.97;;
3847;SDS011;1939;48.720;9.166;2022-11-15T15:52:43;10.60;;;8.67;;
3847;SDS011;1939;48.720;9.166;2022-11-15T15:55:08;18.90;;;8.57;;
3847;SDS011;1939;48.720;9.166;2022-11-15T15:57:33;9.60;;;7.37;;
3847;SDS011;1939;48.720;9.166;2022-11-15T15:59:58;12.00;;;7.80;;
3847;SDS011;1939;48.720;9.166;2022-11-15T16:02:24;14.90;;;9.57;;
3847;SDS011;1939;48.720;9.166;2022-11-15T16:04:49;14.70;;;9.60;;
3847;SDS011;1939;48.720;9.166;2022-11-15T16:07:21;14.10;;;9.20;;
3847;SDS011;1939;48.720;9.166;2022-11-15T16:09:46;13.90;;;10.20;;
3847;SDS011;1939;48.720;9.166;2022-11-15T16:12:31;28.13;;;13.40;;
3847;SDS011;1939;48.720;9.166;2022-11-15T16:14:56;21.00;;;9.47;;
3847;SDS011;1939;48.720;9.166;2022-11-15T16:17:23;17.67;;;9.20;;
3847;SDS011;1939;48.720;9.166;2022-11-15T16:19:48;18.93;;;9.63;;
3847;SDS011;1939;48.720;9.166;2022-11-15T16:22:13;26.43;;;14.97;;
3847;SDS011;1939;48.720;9.166;2022-11-15T16:24:39;55.47;;;22.87;;
3847;SDS011;1939;48.720;9.166;2022-11-15T16:27:04;17.47;;;9.90;;
3847;SDS011;1939;48.720;9.166;2022-11-15T16:29:29;22.53;;;11.57;;
3847;SDS011;1939;48.720;9.166;2022-11-15T16:31:54;25.53;;;10.00;;
3847;SDS011;1939;48.720;9.166;2022-11-15T16:34:20;11.57;;;8.17;;
3847;SDS011;1939;48.720;9.166;2022-11-15T16:36:46;17.43;;;9.80;;
3847;SDS011;1939;48.720;9.166;2022-11-15T16:39:11;24.67;;;13.30;;
3847;SDS011;1939;48.720;9.166;2022-11-15T16:41:38;19.50;;;12.00;;
3847;SDS011;1939;48.720;9.166;2022-11-15T16:44:03;19.97;;;10.50;;
3847;SDS011;1939;48.720;9.166;2022-11-15T16:46:29;19.40;;;8.90;;
3847;SDS011;1939;48.720;9.166;2022-11-15T16:48:54;17.43;;;8.37;;
3847;SDS011;1939;48.720;9.166;2022-11-15T16:51:19;14.70;;;8.43;;
3847;SDS011;1939;48.720;9.166;2022-11-15T16:53:45;22.37;;;8.97;;
3847;SDS011;1939;48.720;9.166;2022-11-15T16:56:26;14.57;;;8.70;;
3847;SDS011;1939;48.720;9.166;2022-11-15T16:58:55;18.67;;;8.10;;
3847;SDS011;1939;48.720;9.166;2022-11-15T17:01:29;16.70;;;8.40;;
3847;SDS011;1939;48.720;9.166;2022-11-15T17:03:55;16.57;;;8.20;;
3847;SDS011;1939;48.720;9.166;2022-11-15T17:06:20;21.00;;;8.40;;